Peekskill, New York
Current Conditions -  °F | °C
As of 2:45 PM on Saturday 25 Oct 2014 (Local Time) from KSWF Reporting Station
Few Clouds Few Clouds  
Wind Chill: 64°   Ceiling: Unl
Heat Index: 64°   Visibility: 20mi
Dew Point: 45°   Wind: 12mph
Humidity: 49%   Direction: 300°WNW
Pressure: 29.69"   Gusts: 25mph
Location:  41.29°N, 73.92°W
Report Text: KSWF 251845Z 30010G22KT 20SM FEW050 18/07 A2969
Loading
Personal Weather Stations






























Interactive Weather Map
Tropical Storm Tracking
New forecast layout! Learn more

10-Day Weather Forecast

Advertisements
Track Severe Weather on mobile